createdAt,value
2022-10-22T00:01:36.533Z,10.15
2022-10-22T00:04:04.338Z,9.32
2022-10-22T00:06:32.004Z,9.57
2022-10-22T00:08:59.797Z,9.40
2022-10-22T00:11:27.672Z,9.20
2022-10-22T00:13:55.388Z,10.38
2022-10-22T00:16:23.056Z,9.90
2022-10-22T00:18:52.122Z,9.57
2022-10-22T00:21:19.887Z,9.35
2022-10-22T00:23:47.597Z,9.90
2022-10-22T00:26:15.554Z,9.73
2022-10-22T00:28:43.283Z,9.95
2022-10-22T00:31:11.051Z,9.32
2022-10-22T00:33:38.775Z,9.63
2022-10-22T00:36:08.843Z,10.07
2022-10-22T00:38:36.703Z,10.48
2022-10-22T00:41:04.398Z,8.43
2022-10-22T00:43:32.188Z,9.95
2022-10-22T00:45:59.885Z,9.40
2022-10-22T00:48:31.012Z,9.43
2022-10-22T00:51:02.254Z,8.98
2022-10-22T00:53:34.293Z,9.18
2022-10-22T00:56:02.267Z,9.57
2022-10-22T00:58:35.780Z,10.00
2022-10-22T01:01:04.347Z,9.40
2022-10-22T01:03:33.244Z,9.95
2022-10-22T01:06:02.882Z,9.88
2022-10-22T01:08:40.178Z,9.70
2022-10-22T01:11:19.600Z,9.48
2022-10-22T01:13:53.411Z,9.67
2022-10-22T01:16:28.634Z,10.02
2022-10-22T01:19:03.983Z,10.18
2022-10-22T01:21:35.775Z,9.70
2022-10-22T01:24:35.363Z,9.73
2022-10-22T01:27:16.424Z,9.70
2022-10-22T01:29:49.371Z,9.80
2022-10-22T01:32:20.230Z,10.45
2022-10-22T01:34:53.242Z,9.80
2022-10-22T01:37:25.314Z,10.45
2022-10-22T01:39:54.099Z,9.70
2022-10-22T01:42:21.792Z,9.65
2022-10-22T01:44:51.110Z,10.57
2022-10-22T01:47:28.777Z,9.52
2022-10-22T01:50:36.752Z,9.30
2022-10-22T01:53:19.017Z,10.30
2022-10-22T01:55:57.660Z,9.43
2022-10-22T01:58:36.175Z,10.10
2022-10-22T02:01:10.402Z,10.68
2022-10-22T02:03:46.231Z,9.90
2022-10-22T02:06:21.762Z,10.70
2022-10-22T02:08:51.363Z,10.38
2022-10-22T02:11:19.206Z,9.65
2022-10-22T02:13:50.002Z,10.30
2022-10-22T02:16:25.522Z,9.52
2022-10-22T02:18:56.685Z,9.17
2022-10-22T02:21:24.900Z,10.07
2022-10-22T02:23:52.670Z,10.25
2022-10-22T02:26:26.116Z,9.88
2022-10-22T02:29:00.483Z,10.23
2022-10-22T02:31:32.940Z,10.07
2022-10-22T02:34:07.936Z,10.15
2022-10-22T02:36:36.243Z,9.80
2022-10-22T02:39:04.686Z,10.07
2022-10-22T02:41:32.737Z,10.23
2022-10-22T02:44:02.172Z,10.03
2022-10-22T02:46:31.247Z,10.52
2022-10-22T02:48:58.922Z,10.60
2022-10-22T02:51:26.636Z,10.25
2022-10-22T02:53:54.337Z,11.13
2022-10-22T02:56:22.054Z,10.87
2022-10-22T02:58:49.717Z,11.20
2022-10-22T03:01:17.440Z,10.23
2022-10-22T03:03:46.552Z,11.85
2022-10-22T03:06:14.450Z,10.40
2022-10-22T03:08:42.703Z,10.37
2022-10-22T03:11:10.546Z,11.52
2022-10-22T03:13:39.240Z,12.07
2022-10-22T03:16:07.563Z,11.48
2022-10-22T03:18:35.374Z,11.10
2022-10-22T03:21:10.918Z,11.67
2022-10-22T03:23:41.425Z,12.43
2022-10-22T03:26:10.142Z,11.60
2022-10-22T03:28:39.409Z,11.45
2022-10-22T03:31:07.585Z,11.60
2022-10-22T03:33:35.410Z,11.50
2022-10-22T03:36:04.983Z,12.25
2022-10-22T03:38:32.743Z,11.60
2022-10-22T03:41:00.478Z,12.82
2022-10-22T03:43:28.629Z,12.00
2022-10-22T03:45:56.418Z,12.03
2022-10-22T03:48:24.266Z,12.18
2022-10-22T03:50:52.040Z,11.27
2022-10-22T03:53:21.096Z,12.02
2022-10-22T03:55:48.760Z,12.63
2022-10-22T03:58:16.492Z,12.33
2022-10-22T04:00:44.316Z,12.35
2022-10-22T04:03:12.023Z,12.82
2022-10-22T04:05:39.676Z,12.88
2022-10-22T04:08:07.376Z,11.80
2022-10-22T04:10:36.720Z,12.47
2022-10-22T04:13:04.447Z,12.30
2022-10-22T04:15:33.080Z,11.88
2022-10-22T04:18:00.776Z,11.65
2022-10-22T04:20:28.457Z,11.65
2022-10-22T04:22:56.422Z,11.90
2022-10-22T04:25:24.118Z,12.18
2022-10-22T04:27:53.160Z,11.80
2022-10-22T04:30:20.813Z,11.95
2022-10-22T04:32:48.513Z,12.60
2022-10-22T04:35:16.564Z,10.30
2022-10-22T04:37:44.290Z,10.73
2022-10-22T04:40:13.289Z,10.38
2022-10-22T04:42:40.963Z,11.93
2022-10-22T04:45:11.345Z,10.80
2022-10-22T04:47:39.243Z,10.37
2022-10-22T04:50:08.187Z,10.20
2022-10-22T04:52:35.879Z,10.73
2022-10-22T04:55:03.610Z,10.25
2022-10-22T04:57:31.950Z,10.52
2022-10-22T04:59:59.707Z,10.10
2022-10-22T05:02:28.832Z,10.75
2022-10-22T05:04:56.559Z,10.57
2022-10-22T05:07:24.576Z,10.48
2022-10-22T05:09:52.337Z,10.20
2022-10-22T05:12:20.068Z,10.30
2022-10-22T05:14:47.753Z,9.88
2022-10-22T05:17:15.463Z,10.60
2022-10-22T05:19:44.644Z,10.88
2022-10-22T05:22:12.314Z,10.55
2022-10-22T05:24:40.247Z,11.70
2022-10-22T05:27:08.010Z,10.35
2022-10-22T05:29:35.826Z,10.25
2022-10-22T05:32:05.222Z,10.63
2022-10-22T05:34:33.373Z,10.27
2022-10-22T05:37:02.493Z,10.40
2022-10-22T05:39:30.426Z,9.57
2022-10-22T05:41:58.533Z,11.38
2022-10-22T05:44:26.240Z,10.25
2022-10-22T05:46:53.945Z,10.52
2022-10-22T05:49:21.743Z,10.73
2022-10-22T05:51:49.468Z,9.82
2022-10-22T05:54:22.149Z,8.63
2022-10-22T05:56:50.270Z,10.10
2022-10-22T05:59:17.981Z,10.00
2022-10-22T06:01:45.917Z,10.20
2022-10-22T06:04:16.101Z,10.70
2022-10-22T06:06:46.107Z,10.07
2022-10-22T06:09:17.631Z,9.93
2022-10-22T06:11:47.585Z,9.80
2022-10-22T06:14:16.192Z,10.47
2022-10-22T06:16:43.989Z,8.95
2022-10-22T06:19:16.428Z,9.70
2022-10-22T06:21:44.861Z,9.18
2022-10-22T06:24:13.084Z,9.52
2022-10-22T06:26:41.111Z,9.93
2022-10-22T06:29:10.634Z,9.48
2022-10-22T06:31:38.361Z,8.98
2022-10-22T06:34:07.030Z,8.98
2022-10-22T06:36:35.470Z,9.57
2022-10-22T06:39:04.158Z,8.33
2022-10-22T06:41:32.183Z,9.30
2022-10-22T06:44:02.834Z,7.95
2022-10-22T06:46:32.765Z,9.23
2022-10-22T06:49:02.497Z,9.98
2022-10-22T06:51:31.143Z,9.43
2022-10-22T06:53:59.706Z,11.68
2022-10-22T06:56:29.063Z,8.75
2022-10-22T06:58:58.191Z,9.20
2022-10-22T07:01:27.708Z,9.52
2022-10-22T07:03:57.361Z,10.07
2022-10-22T07:06:26.657Z,10.77
2022-10-22T07:08:55.334Z,9.02
2022-10-22T07:11:25.578Z,10.32
2022-10-22T07:13:55.446Z,9.45
2022-10-22T07:16:25.721Z,9.63
2022-10-22T07:18:57.284Z,10.85
2022-10-22T07:21:26.149Z,10.18
2022-10-22T07:23:54.055Z,9.65
2022-10-22T07:26:22.064Z,10.32
2022-10-22T07:28:49.769Z,9.47
2022-10-22T07:31:18.604Z,10.15
2022-10-22T07:33:46.693Z,10.13
2022-10-22T07:36:18.427Z,10.40
2022-10-22T07:38:46.985Z,10.57
2022-10-22T07:41:15.656Z,9.50
2022-10-22T07:43:43.983Z,10.15
2022-10-22T07:46:11.998Z,11.52
2022-10-22T07:48:39.807Z,10.77
2022-10-22T07:51:07.874Z,10.00
2022-10-22T07:53:37.397Z,9.77
2022-10-22T07:56:05.567Z,9.85
2022-10-22T07:58:33.439Z,11.25
2022-10-22T08:01:02.935Z,11.30
2022-10-22T08:03:30.936Z,10.45
2022-10-22T08:05:59.043Z,16.03
2022-10-22T08:08:29.754Z,18.42
2022-10-22T08:11:02.161Z,10.00
2022-10-22T08:13:31.158Z,9.95
2022-10-22T08:15:59.734Z,10.18
2022-10-22T08:18:27.832Z,11.47
2022-10-22T08:20:55.809Z,10.85
2022-10-22T08:23:27.559Z,11.13
2022-10-22T08:25:56.478Z,9.80
2022-10-22T08:28:25.623Z,10.40
2022-10-22T08:30:53.320Z,9.77
2022-10-22T08:33:21.171Z,10.00
2022-10-22T08:35:50.235Z,10.60
2022-10-22T08:38:18.407Z,9.60
2022-10-22T08:40:49.660Z,9.05
2022-10-22T08:43:42.912Z,9.90
2022-10-22T08:46:27.658Z,9.48
2022-10-22T08:48:56.882Z,9.00
2022-10-22T08:51:29.448Z,9.98
2022-10-22T08:54:14.315Z,24.73
2022-10-22T08:56:45.279Z,20.67
2022-10-22T08:59:18.906Z,31.80
2022-10-22T09:01:48.931Z,24.95
2022-10-22T09:04:25.419Z,11.35
2022-10-22T09:06:55.210Z,12.52
2022-10-22T09:09:24.328Z,12.47
2022-10-22T09:11:53.131Z,8.88
2022-10-22T09:14:24.641Z,11.73
2022-10-22T09:17:13.445Z,8.50
2022-10-22T09:19:56.359Z,8.52
2022-10-22T09:25:15.124Z,8.80
2022-10-22T09:27:43.337Z,9.55
2022-10-22T09:30:17.751Z,8.50
2022-10-22T09:32:45.710Z,8.85
2022-10-22T09:35:15.367Z,9.27
2022-10-22T09:37:51.541Z,10.32
2022-10-22T09:40:19.853Z,12.93
2022-10-22T09:42:48.068Z,13.18
2022-10-22T09:45:26.803Z,8.82
2022-10-22T09:48:11.130Z,8.77
2022-10-22T09:50:44.073Z,8.32
2022-10-22T09:53:19.532Z,8.98
2022-10-22T09:55:52.843Z,9.05
2022-10-22T09:58:21.749Z,9.35
2022-10-22T10:00:54.699Z,9.43
2022-10-22T10:03:26.330Z,8.57
2022-10-22T10:05:58.070Z,8.77
2022-10-22T10:08:28.140Z,10.10
2022-10-22T10:11:00.733Z,10.02
2022-10-22T10:13:48.753Z,8.93
2022-10-22T10:16:33.003Z,8.95
2022-10-22T10:19:17.934Z,8.13
2022-10-22T10:21:53.610Z,8.05
2022-10-22T10:24:29.426Z,8.30
2022-10-22T10:27:03.490Z,9.83
2022-10-22T10:29:42.344Z,8.80
2022-10-22T10:32:31.891Z,8.73
2022-10-22T10:35:16.449Z,8.45
2022-10-22T10:37:50.950Z,8.85
2022-10-22T10:40:28.170Z,8.97
2022-10-22T10:43:01.275Z,9.20
2022-10-22T10:45:38.160Z,8.57
2022-10-22T10:48:22.198Z,9.00
2022-10-22T10:51:06.343Z,8.50
2022-10-22T10:53:47.611Z,9.07
2022-10-22T10:56:34.412Z,9.18
2022-10-22T10:59:15.409Z,9.02
2022-10-22T11:01:57.365Z,8.52
2022-10-22T11:04:50.524Z,9.00
2022-10-22T11:07:34.184Z,8.20
2022-10-22T11:10:11.056Z,8.13
2022-10-22T11:12:43.525Z,8.48
2022-10-22T11:15:23.925Z,8.32
2022-10-22T11:17:55.631Z,8.07
2022-10-22T11:20:31.430Z,8.13
2022-10-22T11:23:22.069Z,8.90
2022-10-22T11:25:51.610Z,8.48
2022-10-22T11:28:26.841Z,8.23
2022-10-22T11:31:01.850Z,9.13
2022-10-22T11:33:40.186Z,9.30
2022-10-22T11:36:11.678Z,8.65
2022-10-22T11:38:39.586Z,8.82
2022-10-22T11:41:16.990Z,8.55
2022-10-22T11:43:59.474Z,8.65
2022-10-22T11:46:36.447Z,8.00
2022-10-22T11:49:16.551Z,7.50
2022-10-22T11:51:47.076Z,8.63
2022-10-22T11:54:42.426Z,8.00
2022-10-22T11:57:20.229Z,7.60
2022-10-22T11:59:51.356Z,7.80
2022-10-22T12:02:39.962Z,7.82
2022-10-22T12:05:44.451Z,7.30
2022-10-22T12:08:27.593Z,7.00
2022-10-22T12:11:13.289Z,6.40
2022-10-22T12:14:12.884Z,7.37
2022-10-22T12:16:55.846Z,8.00
2022-10-22T12:19:33.001Z,7.38
2022-10-22T12:22:12.075Z,7.53
2022-10-22T12:24:44.601Z,7.57
2022-10-22T12:27:22.625Z,7.30
2022-10-22T12:29:55.739Z,7.22
2022-10-22T12:32:23.937Z,8.20
2022-10-22T12:34:53.248Z,7.05
2022-10-22T12:37:21.303Z,7.25
2022-10-22T12:39:50.365Z,8.20
2022-10-22T12:42:19.240Z,8.20
2022-10-22T12:44:46.973Z,7.65
2022-10-22T12:47:17.779Z,6.78
2022-10-22T12:49:49.173Z,8.38
2022-10-22T12:52:21.289Z,7.23
2022-10-22T12:54:52.476Z,7.28
2022-10-22T12:57:21.683Z,6.65
2022-10-22T12:59:52.374Z,7.00
2022-10-22T13:02:24.393Z,6.85
2022-10-22T13:05:16.116Z,7.50
2022-10-22T13:07:45.849Z,7.13
2022-10-22T13:10:21.649Z,6.80
2022-10-22T13:12:55.611Z,6.82
2022-10-22T13:15:37.754Z,6.10
2022-10-22T13:18:17.051Z,5.77
2022-10-22T13:20:55.591Z,4.45
2022-10-22T13:23:25.443Z,4.80
2022-10-22T13:26:04.142Z,3.88
2022-10-22T13:28:33.226Z,4.20
2022-10-22T13:31:03.940Z,3.47
2022-10-22T13:33:36.579Z,3.75
2022-10-22T13:36:05.640Z,3.80
2022-10-22T13:38:33.442Z,3.40
2022-10-22T13:41:03.315Z,2.97
2022-10-22T13:43:59.778Z,3.67
2022-10-22T13:46:29.492Z,4.05
2022-10-22T13:48:58.839Z,4.53
2022-10-22T13:51:32.068Z,4.95
2022-10-22T13:54:00.511Z,5.13
2022-10-22T13:56:29.725Z,5.73
2022-10-22T13:58:57.560Z,5.80
2022-10-22T14:01:27.691Z,6.72
2022-10-22T14:03:58.527Z,6.30
2022-10-22T14:06:32.759Z,6.20
2022-10-22T14:09:03.119Z,6.70
2022-10-22T14:11:32.749Z,7.35
2022-10-22T14:14:00.892Z,6.20
2022-10-22T14:16:31.261Z,6.95
2022-10-22T14:19:00.379Z,6.85
2022-10-22T14:21:31.190Z,7.27
2022-10-22T14:23:58.863Z,6.38
2022-10-22T14:26:31.295Z,6.50
2022-10-22T14:29:15.963Z,6.88
2022-10-22T14:31:45.016Z,6.50
2022-10-22T14:34:14.384Z,6.43
2022-10-22T14:36:44.024Z,6.93
2022-10-22T14:39:12.048Z,6.45
2022-10-22T14:41:39.874Z,5.97
2022-10-22T14:44:12.773Z,6.47
2022-10-22T14:46:42.656Z,6.00
2022-10-22T14:49:10.391Z,5.68
2022-10-22T14:51:38.122Z,5.43
2022-10-22T14:54:06.036Z,5.90
2022-10-22T14:56:33.979Z,5.38
2022-10-22T14:59:01.741Z,5.97
2022-10-22T15:01:30.868Z,6.03
2022-10-22T15:03:58.534Z,6.07
2022-10-22T15:06:26.240Z,6.07
2022-10-22T15:08:53.991Z,5.43
2022-10-22T15:11:22.174Z,5.80
2022-10-22T15:13:50.005Z,5.32
2022-10-22T15:16:18.313Z,5.43
2022-10-22T15:18:47.581Z,5.10
2022-10-22T15:21:17.239Z,5.80
2022-10-22T15:23:45.037Z,5.80
2022-10-22T15:26:13.919Z,5.80
2022-10-22T15:28:42.301Z,5.18
2022-10-22T15:31:13.087Z,5.85
2022-10-22T15:33:42.304Z,5.60
2022-10-22T15:36:13.143Z,6.53
2022-10-22T15:38:41.282Z,6.35
2022-10-22T15:41:12.358Z,5.43
2022-10-22T15:43:40.215Z,5.47
2022-10-22T15:46:13.889Z,5.72
2022-10-22T15:48:42.005Z,5.50
2022-10-22T15:51:13.918Z,5.53
2022-10-22T15:53:42.465Z,5.57
2022-10-22T15:56:11.701Z,6.80
2022-10-22T15:58:40.840Z,6.57
2022-10-22T16:01:10.511Z,6.43
2022-10-22T16:03:38.848Z,6.85
2022-10-22T16:06:09.157Z,5.75
2022-10-22T16:08:38.717Z,6.20
2022-10-22T16:11:06.837Z,6.03
2022-10-22T16:13:36.828Z,6.30
2022-10-22T16:16:07.625Z,6.13
2022-10-22T16:18:35.345Z,6.88
2022-10-22T16:21:03.014Z,5.28
2022-10-22T16:23:31.005Z,6.40
2022-10-22T16:26:02.501Z,5.80
2022-10-22T16:28:30.448Z,5.90
2022-10-22T16:31:02.020Z,5.70
2022-10-22T16:33:39.160Z,5.65
2022-10-22T16:36:11.954Z,5.03
2022-10-22T16:38:39.721Z,4.77
2022-10-22T16:41:10.301Z,5.00
2022-10-22T16:43:38.385Z,5.35
2022-10-22T16:46:06.959Z,5.88
2022-10-22T16:48:34.726Z,5.35
2022-10-22T16:51:07.550Z,5.27
2022-10-22T16:56:03.194Z,5.00
2022-10-22T16:58:32.289Z,5.25
2022-10-22T17:01:00.073Z,5.15
2022-10-22T17:03:28.449Z,6.43
2022-10-22T17:05:59.271Z,5.70
2022-10-22T17:08:27.022Z,5.22
2022-10-22T17:10:54.788Z,5.60
2022-10-22T17:13:22.749Z,5.65
2022-10-22T17:15:51.853Z,5.10
2022-10-22T17:18:19.577Z,5.50
2022-10-22T17:20:47.270Z,5.90
2022-10-22T17:23:14.947Z,5.53
2022-10-22T17:25:44.220Z,5.38
2022-10-22T17:28:12.561Z,5.70
2022-10-22T17:30:41.231Z,5.13
2022-10-22T17:33:10.716Z,5.32
2022-10-22T17:35:42.944Z,5.40
2022-10-22T17:38:10.690Z,5.55
2022-10-22T17:40:39.060Z,5.10
2022-10-22T17:43:06.803Z,5.40
2022-10-22T17:45:34.539Z,5.22
2022-10-22T17:48:02.482Z,4.95
2022-10-22T17:50:31.536Z,4.97
2022-10-22T17:52:59.282Z,5.03
2022-10-22T17:55:26.954Z,4.88
2022-10-22T17:57:54.628Z,4.95
2022-10-22T18:00:23.560Z,5.50
2022-10-22T18:02:51.264Z,5.68
2022-10-22T18:05:19.000Z,5.20
2022-10-22T18:07:48.068Z,5.22
2022-10-22T18:10:15.811Z,5.28
2022-10-22T18:12:43.824Z,5.78
2022-10-22T18:15:11.908Z,5.07
2022-10-22T18:17:40.197Z,5.13
2022-10-22T18:20:09.130Z,4.65
2022-10-22T18:22:37.129Z,4.82
2022-10-22T18:25:07.308Z,5.20
2022-10-22T18:27:35.271Z,5.10
2022-10-22T18:30:03.038Z,5.00
2022-10-22T18:32:32.289Z,5.30
2022-10-22T18:35:00.003Z,4.80
2022-10-22T18:37:27.694Z,4.78
2022-10-22T18:39:55.375Z,4.95
2022-10-22T18:42:26.446Z,4.60
2022-10-22T18:44:56.856Z,4.45
2022-10-22T18:47:24.690Z,3.72
2022-10-22T18:49:52.458Z,3.85
2022-10-22T18:52:20.171Z,4.00
2022-10-22T18:54:47.885Z,4.03
2022-10-22T18:57:15.609Z,3.35
2022-10-22T18:59:44.694Z,4.07
2022-10-22T19:02:16.043Z,3.75
2022-10-22T19:04:44.196Z,4.60
2022-10-22T19:07:13.268Z,4.23
2022-10-22T19:09:41.830Z,3.92
2022-10-22T19:12:10.085Z,3.88
2022-10-22T19:14:37.793Z,3.70
2022-10-22T19:17:06.886Z,3.50
2022-10-22T19:19:34.594Z,3.20
2022-10-22T19:22:02.318Z,3.60
2022-10-22T19:24:30.123Z,3.85
2022-10-22T19:26:57.884Z,3.33
2022-10-22T19:29:25.614Z,3.67
2022-10-22T19:31:53.397Z,3.33
2022-10-22T19:34:22.571Z,3.10
2022-10-22T19:36:52.103Z,2.30
2022-10-22T19:39:20.315Z,2.20
2022-10-22T19:41:48.212Z,2.08
2022-10-22T19:44:16.235Z,1.47
2022-10-22T19:46:44.013Z,1.50
2022-10-22T19:49:12.314Z,1.50
2022-10-22T19:51:41.608Z,1.30
2022-10-22T19:54:15.677Z,1.40
2022-10-22T19:56:43.364Z,1.50
2022-10-22T19:59:11.074Z,1.13
2022-10-22T20:01:39.178Z,1.17
2022-10-22T20:04:06.949Z,1.40
2022-10-22T20:06:34.728Z,1.42
2022-10-22T20:09:03.824Z,1.43
2022-10-22T20:11:31.615Z,1.50
2022-10-22T20:13:59.906Z,1.60
2022-10-22T20:16:30.021Z,1.60
2022-10-22T20:19:01.226Z,1.85
2022-10-22T20:21:29.454Z,1.40
2022-10-22T20:23:58.093Z,1.60
2022-10-22T20:26:28.823Z,1.90
2022-10-22T20:28:57.178Z,2.15
2022-10-22T20:31:28.355Z,2.40
2022-10-22T20:33:58.774Z,2.30
2022-10-22T20:36:27.491Z,2.50
2022-10-22T20:39:00.231Z,2.33
2022-10-22T20:41:29.715Z,2.33
2022-10-22T20:43:57.552Z,2.10
2022-10-22T20:46:27.097Z,2.00
2022-10-22T20:48:56.350Z,1.80
2022-10-22T20:51:24.110Z,1.83
2022-10-22T20:53:52.039Z,2.22
2022-10-22T20:56:20.367Z,1.90
2022-10-22T20:58:50.240Z,1.80
2022-10-22T21:01:21.829Z,1.98
2022-10-22T21:03:50.025Z,2.28
2022-10-22T21:06:18.038Z,2.03
2022-10-22T21:08:45.787Z,1.90
2022-10-22T21:11:13.590Z,1.80
2022-10-22T21:13:41.275Z,1.98
2022-10-22T21:16:12.756Z,2.45
2022-10-22T21:18:40.761Z,2.78
2022-10-22T21:21:09.803Z,1.88
2022-10-22T21:23:38.303Z,2.00
2022-10-22T21:26:06.659Z,1.80
2022-10-22T21:28:36.067Z,1.30
2022-10-22T21:31:04.483Z,1.70
2022-10-22T21:33:36.683Z,1.52
2022-10-22T21:36:05.219Z,1.63
2022-10-22T21:38:33.646Z,1.58
2022-10-22T21:41:05.551Z,1.77
2022-10-22T21:43:33.244Z,1.40
2022-10-22T21:46:07.906Z,1.60
2022-10-22T21:48:37.931Z,1.80
2022-10-22T21:51:10.516Z,1.70
2022-10-22T21:53:38.459Z,1.77
2022-10-22T21:56:07.286Z,2.08
2022-10-22T21:58:35.782Z,1.38
2022-10-22T22:01:03.935Z,1.50
2022-10-22T22:03:31.760Z,1.55
2022-10-22T22:06:02.319Z,1.65
2022-10-22T22:08:30.036Z,1.50
2022-10-22T22:11:03.147Z,1.45
2022-10-22T22:13:31.213Z,1.60
2022-10-22T22:16:02.861Z,1.65
2022-10-22T22:18:31.137Z,1.63
2022-10-22T22:21:01.466Z,1.55
2022-10-22T22:23:29.157Z,1.60
2022-10-22T22:26:00.080Z,1.87
2022-10-22T22:28:28.448Z,1.65
2022-10-22T22:30:56.814Z,1.58
2022-10-22T22:33:24.563Z,1.95
2022-10-22T22:35:52.314Z,1.30
2022-10-22T22:38:21.409Z,1.47
2022-10-22T22:40:49.078Z,1.65
2022-10-22T22:43:16.811Z,1.88
2022-10-22T22:45:44.458Z,1.58
2022-10-22T22:48:12.146Z,1.67
2022-10-22T22:50:39.827Z,1.37
2022-10-22T22:53:07.485Z,1.77
2022-10-22T22:55:36.655Z,1.83
2022-10-22T22:58:04.395Z,1.40
2022-10-22T23:00:32.124Z,1.52
2022-10-22T23:02:59.821Z,1.80
2022-10-22T23:05:27.510Z,1.52
2022-10-22T23:07:55.166Z,1.63
2022-10-22T23:10:22.944Z,1.55
2022-10-22T23:12:51.981Z,1.60
2022-10-22T23:15:19.683Z,1.40
2022-10-22T23:17:47.370Z,1.42
2022-10-22T23:20:15.067Z,1.60
2022-10-22T23:22:43.030Z,1.67
2022-10-22T23:25:11.106Z,1.70
2022-10-22T23:27:38.852Z,1.50
2022-10-22T23:30:09.821Z,1.83
2022-10-22T23:32:37.534Z,1.60
2022-10-22T23:35:05.754Z,1.60
2022-10-22T23:37:33.458Z,1.38
2022-10-22T23:40:01.126Z,1.97
2022-10-22T23:42:28.836Z,1.73
2022-10-22T23:44:56.534Z,1.67
2022-10-22T23:47:25.653Z,1.60
2022-10-22T23:49:53.495Z,1.90
2022-10-22T23:52:21.217Z,1.73
2022-10-22T23:54:49.774Z,1.58
2022-10-22T23:57:17.444Z,1.55
2022-10-22T23:59:45.101Z,1.77
